Time;durP1;ratioP1;P1;durP2;ratioP2;P2;SDS_P1;SDS_P2;PMS_P1;PMS_P2;Temp;Humidity;BMP_temperature;BMP_pressure;BME280_temperature;BME280_humidity;BME280_pressure;Samples;Min_cycle;Max_cycle;Signal;HPM_P1;HPM_P2
2022/08/24 00:01:30;;;;;;;2.78;1.58;;;25.80;73.90;;;;;;5053389;28;20128;-26
2022/08/24 00:03:56;;;;;;;2.85;1.48;;;25.80;73.90;;;;;;5053435;28;20462;-26
2022/08/24 00:06:23;;;;;;;2.10;1.20;;;25.80;73.80;;;;;;5053481;28;20489;-27
2022/08/24 00:08:51;;;;;;;2.13;1.40;;;25.80;73.90;;;;;;5053089;28;20032;-25
2022/08/24 00:11:18;;;;;;;2.05;1.50;;;25.80;73.90;;;;;;5053297;28;20466;-25
2022/08/24 00:13:44;;;;;;;3.13;1.40;;;25.80;73.90;;;;;;5053367;28;20121;-27
2022/08/24 00:16:11;;;;;;;1.95;1.52;;;25.80;73.90;;;;;;5053134;28;20486;-26
2022/08/24 00:18:38;;;;;;;2.45;1.23;;;25.80;73.90;;;;;;5053053;28;20150;-26
2022/08/24 00:21:04;;;;;;;4.60;2.00;;;25.80;73.90;;;;;;5035162;28;20021;-25
2022/08/24 00:23:30;;;;;;;2.80;1.50;;;25.70;73.80;;;;;;5053008;28;20028;-25
2022/08/24 00:25:56;;;;;;;2.47;1.40;;;25.80;73.90;;;;;;5052753;28;20028;-27
2022/08/24 00:28:22;;;;;;;2.30;1.55;;;25.80;73.90;;;;;;5052435;28;20538;-27
2022/08/24 00:30:49;;;;;;;1.55;1.23;;;25.80;73.90;;;;;;5052768;28;20040;-26
2022/08/24 00:33:14;;;;;;;2.88;1.50;;;25.70;73.90;;;;;;5053030;28;20402;-25
2022/08/24 00:35:40;;;;;;;3.42;1.60;;;25.70;73.90;;;;;;5052963;28;20025;-27
2022/08/24 00:38:07;;;;;;;1.63;1.50;;;25.70;73.90;;;;;;5052874;28;20079;-26
2022/08/24 00:40:36;;;;;;;2.25;1.52;;;25.70;73.90;;;;;;5052648;28;20029;-27
2022/08/24 00:43:05;;;;;;;1.80;1.30;;;25.70;73.90;;;;;;5052856;28;20033;-26
2022/08/24 00:45:46;;;;;;;3.30;1.30;;;25.70;73.90;;;;;;5052666;28;20064;-25
2022/08/24 00:48:20;;;;;;;1.88;1.20;;;25.70;73.90;;;;;;5052582;28;20035;-26
2022/08/24 00:50:52;;;;;;;4.47;1.60;;;25.70;73.90;;;;;;5052588;28;20025;-26
2022/08/24 00:53:32;;;;;;;2.45;1.40;;;25.70;73.90;;;;;;5052617;28;20025;-26
2022/08/24 00:56:03;;;;;;;2.92;1.67;;;25.70;73.90;;;;;;5052565;28;20081;-26
2022/08/24 00:58:36;;;;;;;3.00;1.42;;;25.60;73.80;;;;;;5052364;28;20021;-26
2022/08/24 01:01:05;;;;;;;2.08;1.30;;;25.70;73.90;;;;;;5052823;28;20021;-26
2022/08/24 01:03:31;;;;;;;2.17;1.50;;;25.60;73.90;;;;;;5052382;28;20474;-25
2022/08/24 01:05:58;;;;;;;2.25;1.38;;;25.70;73.90;;;;;;5052180;28;20108;-27
2022/08/24 01:08:25;;;;;;;2.30;1.50;;;25.70;73.90;;;;;;5051975;28;20029;-27
2022/08/24 01:10:58;;;;;;;2.00;1.20;;;25.70;73.90;;;;;;5052197;28;20520;-26
2022/08/24 01:13:24;;;;;;;1.52;1.30;;;25.70;73.90;;;;;;5052578;28;20508;-26
2022/08/24 01:15:54;;;;;;;1.50;1.20;;;25.60;73.90;;;;;;5052164;28;20029;-26
2022/08/24 01:21:20;;;;;;;1.77;1.20;;;25.60;73.80;;;;;;5052151;28;20036;-26
2022/08/24 01:23:49;;;;;;;1.75;1.35;;;25.60;73.80;;;;;;5052336;28;20048;-26
2022/08/24 01:26:40;;;;;;;1.73;1.20;;;25.60;73.90;;;;;;5052111;28;20031;-26
2022/08/24 01:29:26;;;;;;;2.17;1.42;;;25.60;73.90;;;;;;5050772;28;20048;-26
2022/08/24 01:31:52;;;;;;;2.65;1.50;;;25.60;73.80;;;;;;5052010;28;20067;-26
2022/08/24 01:34:19;;;;;;;1.55;1.30;;;25.60;73.80;;;;;;5051930;28;20028;-27
2022/08/24 01:36:48;;;;;;;4.47;1.30;;;25.60;73.90;;;;;;5051807;28;20040;-27
2022/08/24 01:39:24;;;;;;;1.75;1.30;;;25.60;73.90;;;;;;5051390;28;20478;-25
2022/08/24 01:41:50;;;;;;;3.15;1.20;;;25.60;73.90;;;;;;5051827;28;20021;-26
2022/08/24 01:44:17;;;;;;;1.70;1.35;;;25.60;73.90;;;;;;5051831;28;20513;-25
2022/08/24 01:46:54;;;;;;;1.85;1.40;;;25.60;73.90;;;;;;5051747;28;20118;-26
2022/08/24 01:49:22;;;;;;;4.00;1.67;;;25.60;73.90;;;;;;5051592;28;20051;-26
2022/08/24 01:51:47;;;;;;;2.08;1.30;;;25.50;73.80;;;;;;5051527;28;20025;-25
2022/08/24 01:54:14;;;;;;;4.40;1.40;;;25.50;73.90;;;;;;5051606;28;20029;-26
2022/08/24 01:56:41;;;;;;;1.23;1.02;;;25.50;73.80;;;;;;5051668;28;20036;-25
2022/08/24 01:59:07;;;;;;;5.68;1.40;;;25.50;73.90;;;;;;5051474;28;20108;-25
2022/08/24 02:01:37;;;;;;;3.97;1.40;;;25.50;73.90;;;;;;5051670;28;20104;-25
2022/08/24 02:04:05;;;;;;;1.70;1.17;;;25.50;73.90;;;;;;5051632;28;20394;-26
2022/08/24 02:06:31;;;;;;;2.17;1.30;;;25.50;73.90;;;;;;5051357;28;20593;-25
2022/08/24 02:08:57;;;;;;;1.50;1.30;;;25.50;73.90;;;;;;5051347;28;20025;-25
2022/08/24 02:11:24;;;;;;;2.97;1.48;;;25.50;73.90;;;;;;5051693;28;20474;-25
2022/08/24 02:13:49;;;;;;;1.98;1.33;;;25.50;73.90;;;;;;5051547;28;20056;-25
2022/08/24 02:16:15;;;;;;;2.78;1.33;;;25.50;73.90;;;;;;5051522;28;20059;-25
2022/08/24 02:18:41;;;;;;;2.88;1.70;;;25.50;73.90;;;;;;5051297;28;20100;-25
2022/08/24 02:21:09;;;;;;;1.92;1.50;;;25.50;73.90;;;;;;5051175;28;20021;-25
2022/08/24 02:23:36;;;;;;;2.25;1.50;;;25.50;73.90;;;;;;5051454;28;20466;-26
2022/08/24 02:26:06;;;;;;;1.75;1.30;;;25.50;73.90;;;;;;5051360;28;20486;-25
2022/08/24 02:28:32;;;;;;;1.30;1.20;;;25.50;73.90;;;;;;5051074;28;20029;-27
2022/08/24 02:30:58;;;;;;;3.28;1.60;;;25.50;73.90;;;;;;5051317;28;20037;-25
2022/08/24 02:33:24;;;;;;;2.90;1.50;;;25.50;73.90;;;;;;5051320;28;20029;-26
2022/08/24 02:35:50;;;;;;;1.70;1.20;;;25.50;73.90;;;;;;5051147;28;20021;-25
2022/08/24 02:38:17;;;;;;;2.55;1.30;;;25.40;73.90;;;;;;5051350;28;20025;-25
2022/08/24 02:40:43;;;;;;;1.73;1.38;;;25.50;74.00;;;;;;5051159;28;20029;-25
2022/08/24 02:43:08;;;;;;;2.55;1.60;;;25.40;73.90;;;;;;5051334;28;20029;-25
2022/08/24 02:45:42;;;;;;;1.73;1.10;;;25.40;73.90;;;;;;5051239;28;20055;-25
2022/08/24 02:48:09;;;;;;;1.83;1.40;;;25.50;73.90;;;;;;5051043;28;20104;-25
2022/08/24 02:50:41;;;;;;;2.15;1.33;;;25.40;73.90;;;;;;5052437;28;20025;-25
2022/08/24 02:53:08;;;;;;;1.63;1.20;;;25.40;73.90;;;;;;5054858;28;20100;-26
2022/08/24 02:55:34;;;;;;;1.80;1.40;;;25.40;73.90;;;;;;5054740;28;20049;-26
2022/08/24 02:58:00;;;;;;;1.83;1.45;;;25.40;73.90;;;;;;5054767;28;20025;-25
2022/08/24 03:00:26;;;;;;;1.75;1.40;;;25.40;73.90;;;;;;5054390;28;20375;-25
2022/08/24 03:02:53;;;;;;;1.85;1.40;;;25.40;73.90;;;;;;5054428;28;20025;-25
2022/08/24 03:05:19;;;;;;;1.75;1.40;;;25.40;73.90;;;;;;5054516;28;20048;-26
2022/08/24 03:07:45;;;;;;;2.10;1.40;;;25.40;73.90;;;;;;5054391;28;20116;-25
2022/08/24 03:10:11;;;;;;;2.53;1.30;;;25.40;73.90;;;;;;5054225;28;20109;-25
2022/08/24 03:12:37;;;;;;;1.52;1.38;;;25.40;73.90;;;;;;5054452;28;20100;-25
2022/08/24 03:15:05;;;;;;;1.85;1.30;;;25.40;73.90;;;;;;5054350;28;20052;-26
2022/08/24 03:17:32;;;;;;;2.75;1.48;;;25.40;73.80;;;;;;5054058;28;20021;-25
2022/08/24 03:19:59;;;;;;;3.28;1.48;;;25.40;73.90;;;;;;5053964;28;20075;-25
2022/08/24 03:22:25;;;;;;;2.38;1.52;;;25.30;73.80;;;;;;5054330;28;20067;-25
2022/08/24 03:24:51;;;;;;;2.50;1.35;;;25.30;73.80;;;;;;5054173;28;20025;-26
2022/08/24 03:27:17;;;;;;;2.63;1.30;;;25.30;73.80;;;;;;5054191;28;20032;-25
2022/08/24 03:29:43;;;;;;;2.88;1.30;;;25.30;73.90;;;;;;5053842;28;20032;-25
2022/08/24 03:32:09;;;;;;;2.47;1.30;;;25.30;73.90;;;;;;5053791;28;20109;-25
2022/08/24 03:34:35;;;;;;;3.35;1.30;;;25.30;73.90;;;;;;5053956;28;20104;-26
2022/08/24 03:37:01;;;;;;;2.42;1.20;;;25.30;73.90;;;;;;5053928;28;20025;-27
2022/08/24 03:39:26;;;;;;;2.72;1.58;;;25.30;73.80;;;;;;5053646;28;20029;-25
2022/08/24 03:41:52;;;;;;;2.42;1.33;;;25.30;73.80;;;;;;5053798;28;20071;-25
2022/08/24 03:44:18;;;;;;;1.92;1.30;;;25.30;73.90;;;;;;5053769;28;20386;-25
2022/08/24 03:46:44;;;;;;;2.17;1.48;;;25.30;73.80;;;;;;5053578;28;20032;-26
2022/08/24 03:49:12;;;;;;;2.95;1.40;;;25.30;73.90;;;;;;5035545;28;20025;-25
2022/08/24 03:51:38;;;;;;;1.63;1.30;;;25.30;73.90;;;;;;5053573;28;20493;-26
2022/08/24 03:54:06;;;;;;;1.88;1.48;;;25.30;73.90;;;;;;5053617;28;20063;-25
2022/08/24 03:56:32;;;;;;;1.73;1.40;;;25.30;73.90;;;;;;5053566;28;20029;-25
2022/08/24 03:58:58;;;;;;;2.10;1.40;;;25.20;73.80;;;;;;5053176;28;20036;-26
2022/08/24 04:01:23;;;;;;;2.40;1.60;;;25.20;73.80;;;;;;5053164;28;20116;-26
2022/08/24 04:03:52;;;;;;;1.88;1.30;;;25.20;73.70;;;;;;5053399;28;20025;-25
2022/08/24 04:06:19;;;;;;;2.50;1.50;;;25.20;73.90;;;;;;5053583;28;20029;-25
2022/08/24 04:08:45;;;;;;;2.17;1.35;;;25.20;73.80;;;;;;5053095;28;20371;-25
2022/08/24 04:11:14;;;;;;;2.20;1.42;;;25.20;73.90;;;;;;5053215;28;20078;-26
2022/08/24 04:13:40;;;;;;;1.80;1.30;;;25.20;73.80;;;;;;5053129;28;20391;-25
2022/08/24 04:16:12;;;;;;;2.13;1.50;;;25.20;73.80;;;;;;5053161;28;20039;-25
2022/08/24 04:18:38;;;;;;;3.00;1.50;;;25.20;73.70;;;;;;5052896;28;20025;-26
2022/08/24 04:21:04;;;;;;;2.55;1.65;;;25.20;73.80;;;;;;5035130;28;20021;-25
2022/08/24 04:23:32;;;;;;;2.08;1.25;;;25.20;73.70;;;;;;5053131;28;20386;-26
2022/08/24 04:26:03;;;;;;;2.55;1.50;;;25.20;73.80;;;;;;5052941;28;20448;-25
2022/08/24 04:28:29;;;;;;;2.72;1.35;;;25.20;73.80;;;;;;5052698;28;20108;-26
2022/08/24 04:30:56;;;;;;;2.42;1.23;;;25.20;73.80;;;;;;5053024;28;20036;-25
2022/08/24 04:33:22;;;;;;;2.80;1.50;;;25.20;73.80;;;;;;5052888;28;20100;-25
2022/08/24 04:35:48;;;;;;;1.80;1.30;;;25.10;73.70;;;;;;5052920;28;20051;-25
2022/08/24 04:38:16;;;;;;;2.33;1.40;;;25.10;73.80;;;;;;5052806;28;20029;-25
2022/08/24 04:40:43;;;;;;;1.48;1.23;;;25.10;73.80;;;;;;5052620;28;20104;-25
2022/08/24 04:43:10;;;;;;;1.98;1.52;;;25.10;73.90;;;;;;5052899;28;20033;-25
2022/08/24 04:45:41;;;;;;;2.72;1.45;;;25.10;73.90;;;;;;5052719;28;20051;-25
2022/08/24 04:48:07;;;;;;;2.00;1.50;;;25.10;73.90;;;;;;5052399;28;20056;-25
2022/08/24 04:50:34;;;;;;;1.92;1.33;;;25.10;74.00;;;;;;5052439;28;20530;-25
2022/08/24 04:53:00;;;;;;;1.98;1.50;;;25.10;73.90;;;;;;5052595;28;20025;-25
2022/08/24 04:55:26;;;;;;;3.72;1.40;;;25.10;73.90;;;;;;5052327;28;20489;-25
2022/08/24 04:57:51;;;;;;;3.05;1.63;;;25.10;73.90;;;;;;5052275;28;20032;-25
2022/08/24 05:00:17;;;;;;;3.80;1.63;;;25.00;73.90;;;;;;5052211;28;20024;-25
2022/08/24 05:02:43;;;;;;;2.72;1.58;;;25.00;73.90;;;;;;5052324;28;20060;-25
2022/08/24 05:05:10;;;;;;;2.10;1.40;;;25.00;73.90;;;;;;5052386;28;20033;-25
2022/08/24 05:07:37;;;;;;;1.65;1.30;;;25.00;73.90;;;;;;5052243;28;20079;-25
2022/08/24 05:10:04;;;;;;;1.83;1.17;;;25.00;74.00;;;;;;5052012;28;20048;-25
2022/08/24 05:12:31;;;;;;;2.05;1.40;;;25.00;74.00;;;;;;5051854;28;20032;-25
2022/08/24 05:14:57;;;;;;;1.70;1.38;;;25.00;74.00;;;;;;5052142;28;20021;-26
2022/08/24 05:17:24;;;;;;;2.22;1.50;;;25.00;74.10;;;;;;5052045;28;20394;-25
2022/08/24 05:19:49;;;;;;;1.73;1.20;;;25.00;74.00;;;;;;5051921;28;20029;-25
2022/08/24 05:22:15;;;;;;;1.65;1.50;;;25.00;74.10;;;;;;5051962;28;20051;-25
2022/08/24 05:24:41;;;;;;;1.77;1.23;;;25.00;74.00;;;;;;5052032;28;20047;-25
2022/08/24 05:27:08;;;;;;;1.35;1.17;;;25.00;74.00;;;;;;5052018;28;20023;-25
2022/08/24 05:29:33;;;;;;;1.73;1.40;;;24.90;74.00;;;;;;5051700;28;20029;-25
2022/08/24 05:31:59;;;;;;;2.03;1.33;;;24.90;74.10;;;;;;5064136;22;20053;-24
2022/08/24 05:34:25;;;;;;;1.60;1.40;;;24.90;74.10;;;;;;5032396;28;20014;-24
2022/08/24 05:36:51;;;;;;;2.28;1.40;;;24.90;74.10;;;;;;5032088;28;20029;-24
2022/08/24 05:39:17;;;;;;;2.53;1.50;;;24.90;74.10;;;;;;5031807;28;20031;-24
2022/08/24 05:41:45;;;;;;;2.47;1.30;;;24.90;74.10;;;;;;5031921;28;20101;-24
2022/08/24 05:44:12;;;;;;;2.10;1.50;;;24.90;74.10;;;;;;5031854;28;20525;-24
2022/08/24 05:46:38;;;;;;;2.78;1.73;;;24.90;74.10;;;;;;5031893;28;20041;-24
2022/08/24 05:49:04;;;;;;;2.42;1.40;;;24.90;74.10;;;;;;5031800;28;20026;-24
2022/08/24 05:51:30;;;;;;;1.90;1.50;;;24.90;74.10;;;;;;5031674;28;20105;-24
2022/08/24 05:53:56;;;;;;;1.83;1.35;;;24.90;74.40;;;;;;5031851;28;20099;-24
2022/08/24 05:56:22;;;;;;;2.35;1.35;;;24.90;74.10;;;;;;5014115;28;20026;-24
2022/08/24 05:58:48;;;;;;;1.67;1.48;;;24.90;74.10;;;;;;5031852;28;20040;-24
2022/08/24 06:01:17;;;;;;;1.92;1.35;;;24.90;74.20;;;;;;5031710;28;20033;-24
2022/08/24 06:03:43;;;;;;;2.25;1.50;;;24.90;74.30;;;;;;5031852;28;20030;-24
2022/08/24 06:06:10;;;;;;;1.85;1.33;;;24.90;74.30;;;;;;5031617;28;20509;-24
2022/08/24 06:08:37;;;;;;;3.58;1.67;;;24.90;74.30;;;;;;5031691;28;20029;-24
2022/08/24 06:11:04;;;;;;;1.95;1.50;;;24.90;74.20;;;;;;5031556;28;20386;-23
2022/08/24 06:13:31;;;;;;;1.98;1.30;;;24.90;74.30;;;;;;5031748;28;20191;-24
2022/08/24 06:16:13;;;;;;;2.40;1.55;;;24.90;74.30;;;;;;5031782;28;20053;-23
2022/08/24 06:18:39;;;;;;;1.70;1.30;;;24.90;74.30;;;;;;5031365;28;20022;-24
2022/08/24 06:21:10;;;;;;;1.83;1.42;;;24.90;74.30;;;;;;5031657;28;20096;-23
2022/08/24 06:23:37;;;;;;;1.80;1.40;;;24.90;74.40;;;;;;5031728;28;20660;-24
2022/08/24 06:28:49;;;;;;;1.70;1.17;;;24.90;74.40;;;;;;5035289;28;20036;-23
2022/08/24 06:31:15;;;;;;;1.88;1.40;;;24.90;74.50;;;;;;5034894;28;20395;-24
2022/08/24 06:33:41;;;;;;;3.22;1.38;;;24.90;75.30;;;;;;5035438;28;20091;-23
2022/08/24 06:36:07;;;;;;;4.15;1.85;;;24.90;74.50;;;;;;5035393;28;20017;-23
2022/08/24 06:38:33;;;;;;;2.10;1.40;;;24.90;74.50;;;;;;5035097;28;20699;-23
2022/08/24 06:40:59;;;;;;;1.73;1.50;;;24.90;74.90;;;;;;5034871;28;20021;-23
2022/08/24 06:43:25;;;;;;;1.33;1.23;;;24.90;74.60;;;;;;5035066;28;20029;-24
2022/08/24 06:45:53;;;;;;;1.73;1.30;;;24.90;74.60;;;;;;5017357;28;20076;-23
2022/08/24 06:48:20;;;;;;;11.15;2.22;;;24.90;74.60;;;;;;5034919;28;20049;-23
2022/08/24 06:50:46;;;;;;;18.92;3.20;;;24.70;75.20;;;;;;5034992;28;20443;-23
2022/08/24 06:53:13;;;;;;;17.20;2.67;;;24.40;75.90;;;;;;5035070;28;20445;-23
2022/08/24 06:55:49;;;;;;;8.70;2.20;;;24.30;76.30;;;;;;5034928;28;20067;-24
2022/08/24 06:58:16;;;;;;;13.23;2.42;;;24.40;76.30;;;;;;5016870;28;20491;-24
2022/08/24 07:00:41;;;;;;;10.73;2.22;;;24.40;76.00;;;;;;5016862;28;20038;-23
2022/08/24 07:03:07;;;;;;;13.52;2.20;;;24.50;75.90;;;;;;5034973;28;20022;-24
2022/08/24 07:05:33;;;;;;;12.00;2.30;;;24.60;75.70;;;;;;5016944;28;20033;-23
2022/08/24 07:08:00;;;;;;;9.38;2.10;;;24.70;75.60;;;;;;5034722;28;20052;-24
2022/08/24 07:10:27;;;;;;;8.48;2.05;;;24.70;75.50;;;;;;5016876;28;20024;-23
2022/08/24 07:12:52;;;;;;;7.88;2.30;;;24.70;75.40;;;;;;5034431;28;20056;-24
2022/08/24 07:15:18;;;;;;;6.80;2.47;;;24.70;75.40;;;;;;5034738;28;20033;-24
2022/08/24 07:17:44;;;;;;;12.13;2.10;;;24.80;75.40;;;;;;5034604;28;20030;-24
2022/08/24 07:20:11;;;;;;;7.88;2.00;;;24.80;75.40;;;;;;5034254;28;20029;-24
2022/08/24 07:22:37;;;;;;;7.43;2.10;;;24.80;75.40;;;;;;5034358;28;20045;-23
2022/08/24 07:25:04;;;;;;;7.30;2.10;;;24.80;75.50;;;;;;5034317;28;20049;-23
2022/08/24 07:27:29;;;;;;;8.10;2.05;;;24.80;75.40;;;;;;5034113;28;20022;-24
2022/08/24 07:29:56;;;;;;;9.55;2.38;;;24.80;75.50;;;;;;5034123;28;20025;-23
2022/08/24 07:32:22;;;;;;;6.57;1.88;;;24.80;75.50;;;;;;5034140;28;20041;-24
2022/08/24 07:34:48;;;;;;;5.68;1.90;;;24.80;75.60;;;;;;5034321;28;20108;-24
2022/08/24 07:37:13;;;;;;;5.97;1.95;;;24.80;75.60;;;;;;5033639;28;20100;-23
2022/08/24 07:39:39;;;;;;;5.88;1.85;;;24.80;75.50;;;;;;5033891;28;20032;-23
2022/08/24 07:42:05;;;;;;;5.78;1.85;;;24.90;75.60;;;;;;5033830;28;20030;-23
2022/08/24 07:44:31;;;;;;;8.35;2.00;;;24.80;75.50;;;;;;5034034;28;20032;-23
2022/08/24 07:46:57;;;;;;;6.80;1.90;;;24.90;75.50;;;;;;5033876;28;20030;-23
2022/08/24 07:49:23;;;;;;;6.75;2.25;;;24.90;75.40;;;;;;5033720;28;20028;-23
2022/08/24 07:51:52;;;;;;;6.80;1.90;;;24.90;75.30;;;;;;5034127;28;20033;-23
2022/08/24 07:54:19;;;;;;;4.03;1.73;;;24.90;75.30;;;;;;5033837;28;20441;-23
2022/08/24 07:56:45;;;;;;;4.85;1.73;;;24.90;75.30;;;;;;5033607;28;20037;-23
2022/08/24 07:59:11;;;;;;;8.02;1.67;;;24.90;75.30;;;;;;5033512;28;20029;-23
2022/08/24 08:01:37;;;;;;;6.15;1.90;;;24.90;75.30;;;;;;5033447;28;20027;-23
2022/08/24 08:04:04;;;;;;;3.28;1.70;;;25.00;75.40;;;;;;5033634;28;20372;-23
2022/08/24 08:06:29;;;;;;;5.90;1.70;;;24.90;75.30;;;;;;5033459;28;20104;-23
2022/08/24 08:08:55;;;;;;;5.97;1.70;;;25.00;75.40;;;;;;5033319;28;20117;-23
2022/08/24 08:11:21;;;;;;;3.55;1.85;;;25.00;75.30;;;;;;5033210;28;20029;-23
2022/08/24 08:13:46;;;;;;;3.65;1.70;;;25.00;75.30;;;;;;5033382;28;20033;-23
2022/08/24 08:16:12;;;;;;;3.92;1.70;;;25.00;75.30;;;;;;5033386;28;20018;-23
2022/08/24 08:18:37;;;;;;;5.32;1.40;;;25.10;75.40;;;;;;5033314;28;20029;-23
2022/08/24 08:21:04;;;;;;;6.05;1.65;;;25.10;75.40;;;;;;5033188;28;20036;-23
2022/08/24 08:26:19;;;;;;;6.68;1.58;;;25.10;75.30;;;;;;5034065;28;20402;-23
2022/08/24 08:28:45;;;;;;;3.65;1.50;;;25.10;75.30;;;;;;5033649;28;20030;-23
2022/08/24 08:31:12;;;;;;;4.22;1.40;;;25.10;75.20;;;;;;5033079;28;20033;-23
2022/08/24 08:33:37;;;;;;;4.72;1.50;;;25.20;75.30;;;;;;5033173;28;20018;-23
2022/08/24 08:36:10;;;;;;;3.55;1.40;;;25.10;75.40;;;;;;5032830;28;20386;-23
2022/08/24 08:38:37;;;;;;;4.63;1.50;;;25.10;75.40;;;;;;5032912;28;20048;-23
2022/08/24 08:41:03;;;;;;;3.20;1.63;;;25.10;75.40;;;;;;5032780;28;20032;-23
2022/08/24 08:43:42;;;;;;;6.25;1.48;;;25.20;75.50;;;;;;5032912;28;20502;-23
2022/08/24 08:46:32;;;;;;;3.47;1.27;;;25.20;75.40;;;;;;5032938;28;20056;-23
2022/08/24 08:49:31;;;;;;;2.28;1.52;;;25.20;75.40;;;;;;5031919;28;20021;-23
2022/08/24 08:52:15;;;;;;;15.75;2.47;;;25.20;75.30;;;;;;5004043;28;20056;-23
2022/08/24 08:55:02;;;;;;;8.32;2.28;;;25.20;73.80;;;;;;5032841;28;20025;-23
2022/08/24 08:57:43;;;;;;;6.75;2.03;;;25.30;73.90;;;;;;5032732;28;20041;-23
2022/08/24 09:00:30;;;;;;;8.52;2.28;;;25.50;73.90;;;;;;5032483;28;20475;-23
2022/08/24 09:03:28;;;;;;;6.97;2.00;;;25.50;73.70;;;;;;5032647;28;20060;-23
2022/08/24 09:06:01;;;;;;;6.85;2.00;;;25.60;73.70;;;;;;5021766;28;20118;-23
2022/08/24 09:08:36;;;;;;;7.93;1.88;;;25.60;73.70;;;;;;5032558;28;20025;-23
2022/08/24 09:11:20;;;;;;;3.60;1.60;;;25.70;73.80;;;;;;5032504;28;20386;-23
2022/08/24 09:14:25;;;;;;;;;;;25.70;73.70;;;;;;5015074;28;20033;-23
2022/08/24 09:17:17;;;;;;;5.20;2.10;;;25.70;73.80;;;;;;4990948;28;20011;-23
2022/08/24 09:19:49;;;;;;;5.55;1.88;;;25.70;73.80;;;;;;5019995;28;20108;-23
2022/08/24 09:22:17;;;;;;;5.55;1.60;;;25.70;73.80;;;;;;5032336;28;20095;-23
2022/08/24 09:24:54;;;;;;;4.80;1.60;;;25.80;73.70;;;;;;5032437;28;20025;-23
2022/08/24 09:27:47;;;;;;;4.15;1.70;;;25.80;73.70;;;;;;5032144;28;20450;-23
2022/08/24 09:30:12;;;;;;;4.30;1.70;;;25.80;73.60;;;;;;5032078;28;20021;-23
2022/08/24 09:32:50;;;;;;;7.63;1.85;;;25.80;73.70;;;;;;5032110;28;20036;-23
2022/08/24 09:35:29;;;;;;;5.70;1.80;;;25.80;73.60;;;;;;5032275;28;20029;-23
2022/08/24 09:38:36;;;;;;;4.97;2.00;;;25.90;73.60;;;;;;5032281;28;20021;-23
2022/08/24 09:41:13;;;;;;;5.15;1.60;;;25.90;73.60;;;;;;4951379;29;20519;-23
2022/08/24 09:43:57;;;;;;;4.88;1.63;;;26.00;73.60;;;;;;5022156;28;20048;-23
2022/08/24 09:46:41;;;;;;;4.57;1.80;;;25.90;73.40;;;;;;5032283;28;20478;-23
2022/08/24 09:49:25;;;;;;;2.63;1.60;;;25.90;73.50;;;;;;5031823;28;20044;-23
2022/08/24 09:52:05;;;;;;;3.80;1.67;;;25.90;73.40;;;;;;5032036;28;20029;-23
2022/08/24 09:54:50;;;;;;;3.80;1.50;;;26.00;73.40;;;;;;5032201;28;20552;-23
2022/08/24 09:57:46;;;;;;;4.72;1.48;;;26.00;73.40;;;;;;5032088;28;20025;-23
2022/08/24 10:00:45;;;;;;;2.92;1.52;;;26.00;73.30;;;;;;5034761;28;20029;-23
2022/08/24 10:03:26;;;;;;;4.60;1.63;;;26.00;73.20;;;;;;5036137;28;20032;-23
2022/08/24 10:06:30;;;;;;;2.70;1.42;;;26.10;73.30;;;;;;5035900;28;20018;-23
2022/08/24 10:08:58;;;;;;;3.63;1.73;;;26.10;73.20;;;;;;5035948;28;20398;-23
2022/08/24 10:11:43;;;;;;;3.20;1.42;;;26.10;73.20;;;;;;5035867;28;20494;-23
2022/08/24 10:14:08;;;;;;;;;;;26.10;73.10;;;;;;5018532;28;20360;-23
2022/08/24 10:16:48;;;;;;;1.95;1.40;;;26.10;73.00;;;;;;5035928;28;20039;-23
2022/08/24 10:19:43;;;;;;;3.20;1.50;;;26.20;73.00;;;;;;5035787;28;20029;-23
2022/08/24 10:22:30;;;;;;;2.67;1.30;;;26.20;73.00;;;;;;4964662;28;20044;-23
2022/08/24 10:25:02;;;;;;;2.78;1.25;;;26.30;72.80;;;;;;5035693;28;20096;-23
2022/08/24 10:27:52;;;;;;;2.65;1.20;;;26.30;72.70;;;;;;5035711;28;20479;-23
2022/08/24 10:30:29;;;;;;;2.15;1.45;;;26.30;72.60;;;;;;5035397;28;20022;-23
2022/08/24 10:33:20;;;;;;;3.65;1.45;;;26.30;72.50;;;;;;5035356;28;20553;-23
2022/08/24 10:36:07;;;;;;;2.05;1.27;;;26.20;72.30;;;;;;5035563;28;20025;-23
2022/08/24 10:41:58;;;;;;;2.28;1.20;;;26.20;72.50;;;;;;5035532;28;20048;-23
2022/08/24 10:44:57;;;;;;;2.90;1.50;;;26.20;72.50;;;;;;5035426;28;20052;-23
2022/08/24 10:47:27;;;;;;;3.47;1.67;;;26.30;72.60;;;;;;5017144;28;20029;-23
2022/08/24 10:50:13;;;;;;;2.13;1.10;;;26.30;72.50;;;;;;5034981;28;20087;-23
2022/08/24 10:53:10;;;;;;;1.60;1.05;;;26.20;72.40;;;;;;5035104;28;20049;-23
2022/08/24 10:55:36;;;;;;;2.55;1.30;;;26.30;72.50;;;;;;5034918;28;20029;-23
2022/08/24 10:58:24;;;;;;;2.55;1.00;;;26.20;72.50;;;;;;5034746;28;20037;-23
2022/08/24 11:00:50;;;;;;;4.40;1.23;;;26.30;72.60;;;;;;5034594;28;20025;-23
2022/08/24 11:03:20;;;;;;;2.20;1.25;;;26.30;72.70;;;;;;5034803;28;20084;-23
2022/08/24 11:05:50;;;;;;;2.75;1.40;;;26.30;72.60;;;;;;5034858;28;20029;-23
2022/08/24 11:08:21;;;;;;;1.92;1.10;;;26.30;73.20;;;;;;5034936;28;20026;-23
2022/08/24 11:11:09;;;;;;;2.42;1.15;;;26.40;72.50;;;;;;5033588;28;20148;-23
2022/08/24 11:13:48;;;;;;;2.42;0.90;;;26.30;72.50;;;;;;5016819;28;20501;-23
2022/08/24 11:16:23;;;;;;;2.47;1.27;;;26.40;72.60;;;;;;5034531;28;20382;-23
2022/08/24 11:18:53;;;;;;;3.13;1.17;;;26.40;72.60;;;;;;5034334;28;20025;-23
2022/08/24 11:21:40;;;;;;;4.15;1.17;;;26.40;72.50;;;;;;5016499;28;20036;-23
2022/08/24 11:24:25;;;;;;;1.98;1.20;;;26.40;72.50;;;;;;5034447;28;20053;-23
2022/08/24 11:27:04;;;;;;;2.30;1.17;;;26.50;72.40;;;;;;5034159;28;20099;-23
2022/08/24 11:29:50;;;;;;;3.83;0.90;;;26.50;72.30;;;;;;5034124;28;20021;-23
2022/08/24 11:32:37;;;;;;;1.90;1.30;;;26.50;72.20;;;;;;5034742;28;20490;-23
2022/08/24 11:35:24;;;;;;;2.83;1.40;;;26.50;72.20;;;;;;5034204;28;20033;-23
2022/08/24 11:37:55;;;;;;;2.50;1.40;;;26.50;72.30;;;;;;5034161;28;20056;-23
2022/08/24 11:40:26;;;;;;;2.88;1.10;;;26.50;72.30;;;;;;5033989;28;20033;-23
2022/08/24 11:43:25;;;;;;;2.28;0.90;;;26.50;72.30;;;;;;5033962;28;20059;-23
2022/08/24 11:46:10;;;;;;;1.10;0.90;;;26.50;72.20;;;;;;5033880;28;20441;-23
2022/08/24 11:48:39;;;;;;;1.73;0.90;;;26.50;72.20;;;;;;5033879;28;20440;-23
2022/08/24 11:51:44;;;;;;;1.27;0.90;;;26.60;72.30;;;;;;5034084;28;20048;-23
2022/08/24 11:54:18;;;;;;;1.40;1.10;;;26.60;72.20;;;;;;5035861;28;20024;-23
2022/08/24 11:57:13;;;;;;;2.38;1.27;;;26.60;72.20;;;;;;5034842;28;20049;-23
2022/08/24 11:59:56;;;;;;;2.88;1.00;;;26.60;72.20;;;;;;5026845;28;20087;-23
2022/08/24 12:02:38;;;;;;;10.82;1.33;;;26.60;72.20;;;;;;5033635;28;20474;-23
2022/08/24 12:05:21;;;;;;;9.38;1.38;;;26.70;64.90;;;;;;5033947;28;20034;-23
2022/08/24 12:08:04;;;;;;;9.98;1.42;;;26.90;65.10;;;;;;5015678;28;20032;-23
2022/08/24 12:11:01;;;;;;;12.55;1.58;;;26.90;65.80;;;;;;5033407;28;20063;-23
2022/08/24 12:13:33;;;;;;;11.40;1.60;;;26.90;66.50;;;;;;5033736;28;20033;-23
2022/08/24 12:16:24;;;;;;;6.68;1.50;;;26.90;67.10;;;;;;5033708;28;20482;-23
2022/08/24 12:18:59;;;;;;;6.85;1.55;;;26.80;67.60;;;;;;5032784;28;20035;-23
2022/08/24 12:21:33;;;;;;;11.85;1.20;;;26.80;68.00;;;;;;5033096;28;20029;-23
2022/08/24 12:24:02;;;;;;;8.15;1.60;;;26.70;68.20;;;;;;5033262;28;20096;-23
2022/08/24 12:26:49;;;;;;;5.55;1.20;;;26.70;68.50;;;;;;5033119;28;20064;-23
2022/08/24 12:29:27;;;;;;;4.82;1.20;;;26.70;68.70;;;;;;5033147;28;20459;-23
2022/08/24 12:31:57;;;;;;;8.77;1.50;;;26.70;68.90;;;;;;5032838;28;20033;-23
2022/08/24 12:34:47;;;;;;;4.50;1.05;;;26.70;69.00;;;;;;5033119;28;20024;-23
2022/08/24 12:37:19;;;;;;;2.58;1.15;;;26.70;69.10;;;;;;5033035;28;20116;-23
2022/08/24 12:40:10;;;;;;;3.65;1.30;;;26.70;69.20;;;;;;5032853;28;20105;-23
2022/08/24 12:42:50;;;;;;;5.32;1.00;;;26.70;69.40;;;;;;5032887;28;20036;-23
2022/08/24 12:45:19;;;;;;;7.47;1.35;;;26.70;70.30;;;;;;5033162;28;20021;-23
2022/08/24 12:47:54;;;;;;;5.18;1.33;;;26.70;69.60;;;;;;5032722;28;20036;-23
2022/08/24 12:50:45;;;;;;;6.55;1.17;;;26.70;69.70;;;;;;5032416;28;20061;-23
2022/08/24 12:53:39;;;;;;;4.82;1.27;;;26.70;69.70;;;;;;5032921;28;20026;-23
2022/08/24 12:56:30;;;;;;;3.30;1.00;;;26.70;69.70;;;;;;5015039;28;20025;-23
2022/08/24 12:59:06;;;;;;;4.15;1.20;;;26.70;69.90;;;;;;5032485;28;20033;-23
2022/08/24 13:01:36;;;;;;;2.13;1.00;;;26.70;69.90;;;;;;5032633;28;20707;-24
2022/08/24 13:04:29;;;;;;;1.90;1.20;;;26.70;70.00;;;;;;5032611;28;20049;-23
2022/08/24 13:07:04;;;;;;;4.57;1.17;;;26.70;70.00;;;;;;5032372;28;20083;-23
2022/08/24 13:09:34;;;;;;;2.55;1.30;;;26.70;70.10;;;;;;5032629;28;20026;-23
2022/08/24 13:12:31;;;;;;;5.07;1.27;;;26.80;70.20;;;;;;5032337;28;20021;-23
2022/08/24 13:15:25;;;;;;;3.60;1.20;;;26.80;70.20;;;;;;5032294;28;20036;-23
2022/08/24 13:18:07;;;;;;;1.98;0.75;;;26.80;70.20;;;;;;5032347;28;20021;-24
2022/08/24 13:20:35;;;;;;;4.20;1.00;;;26.80;70.20;;;;;;5032418;28;20033;-23
2022/08/24 13:23:27;;;;;;;3.92;1.23;;;26.80;70.30;;;;;;5032577;28;20434;-23
2022/08/24 13:26:14;;;;;;;3.33;1.10;;;26.80;70.30;;;;;;5010881;28;20033;-23